Terminal Aerodrome Forecast
Issued by NWS St Louis, MO

Home | Current Version | Previous Version | Text Only | Print | Product List | Glossary On
Versions: 1 2 3 4 5 6 7 8 9 10 11 12 13 14 15 16 17 18 19 20 21 22 23 24 25 26 27 28 29 30
000
FTUS43 KLSX 251700
TAFSTL
TAF
KSTL 251720Z 2518/2624 28009KT P6SM SKC
     FM260000 VRB03KT P6SM SCT250
     FM261200 14007KT P6SM OVC080
     FM261600 15008KT 2SM -SN SCT006 OVC015
     FM262100 VRB05KT 3SM -RASN BKN006 OVC010=

USA.gov is the U.S. government's official web portal to all federal, state and local government web resources and services.